Time;durP1;ratioP1;P1;durP2;ratioP2;P2;SDS_P1;SDS_P2;PMS_P1;PMS_P2;Temp;Humidity;BMP_temperature;BMP_pressure;BME280_temperature;BME280_humidity;BME280_pressure;Samples;Min_cycle;Max_cycle;Signal;HPM_P1;HPM_P2
2022/10/20 00:00:30;;;;;;;;;;;18.20;1.00;;;;;;5013471;28;19921;-55
2022/10/20 00:02:57;;;;;;;;;;;18.10;1.00;;;;;;5013112;28;20375;-55
2022/10/20 00:05:24;;;;;;;;;;;18.10;1.00;;;;;;5013610;28;20386;-53
2022/10/20 00:07:51;;;;;;;;;;;18.10;1.00;;;;;;5013637;28;19921;-55
2022/10/20 00:10:17;;;;;;;;;;;18.10;1.00;;;;;;5013525;28;19921;-54
2022/10/20 00:12:44;;;;;;;;;;;18.10;1.00;;;;;;5012924;28;19928;-55
2022/10/20 00:15:11;;;;;;;;;;;18.10;1.00;;;;;;5013360;28;20528;-52
2022/10/20 00:17:37;;;;;;;;;;;18.10;1.00;;;;;;5013431;28;19968;-58
2022/10/20 00:20:04;;;;;;;;;;;18.10;1.00;;;;;;5013395;28;19968;-57
2022/10/20 00:22:31;;;;;;;;;;;18.10;1.00;;;;;;5013080;28;19921;-54
2022/10/20 00:24:58;;;;;;;;;;;18.10;1.00;;;;;;5013179;28;19922;-55
2022/10/20 00:27:25;;;;;;;;;;;18.10;1.00;;;;;;5013400;28;19921;-54
2022/10/20 00:29:51;;;;;;;;;;;18.10;1.00;;;;;;5013255;28;20264;-55
2022/10/20 00:32:18;;;;;;;;;;;18.10;1.00;;;;;;5012944;28;19952;-54
2022/10/20 00:34:45;;;;;;;;;;;18.10;1.00;;;;;;5012992;28;19921;-51
2022/10/20 00:37:11;;;;;;;;;;;18.10;1.00;;;;;;5013124;28;19975;-56
2022/10/20 00:39:38;;;;;;;;;;;18.10;1.00;;;;;;5013127;28;19921;-50
2022/10/20 00:42:05;;;;;;;;;;;18.10;1.00;;;;;;5012909;28;19968;-56
2022/10/20 00:44:51;;;;;;;;;;;18.10;1.00;;;;;;5032088;28;20268;-50
2022/10/20 00:47:25;;;;;;;;;;;18.10;1.00;;;;;;5033007;28;20386;-53
2022/10/20 00:49:54;;;;;;;;;;;18.00;1.00;;;;;;5032611;28;19921;-54
2022/10/20 00:52:21;;;;;;;;;;;18.00;1.00;;;;;;5032535;28;19925;-56
2022/10/20 00:54:48;;;;;;;;;;;18.00;1.00;;;;;;5032904;28;19921;-56
2022/10/20 00:57:16;;;;;;;;;;;18.00;1.00;;;;;;5032723;28;20011;-55
2022/10/20 00:59:43;;;;;;;;;;;18.00;1.00;;;;;;5033463;28;19925;-55
2022/10/20 01:02:10;;;;;;;;;;;18.00;1.00;;;;;;5036150;28;19928;-54
2022/10/20 01:04:37;;;;;;;;;;;18.00;1.00;;;;;;5036334;28;19960;-51
2022/10/20 01:07:04;;;;;;;;;;;18.00;1.00;;;;;;5036304;28;19952;-54
2022/10/20 01:09:32;;;;;;;;;;;18.00;1.00;;;;;;5036195;28;20378;-57
2022/10/20 01:12:04;;;;;;;;;;;18.00;1.00;;;;;;5036123;28;19921;-54
2022/10/20 01:14:46;;;;;;;;;;;18.00;1.00;;;;;;5036115;28;20322;-55
2022/10/20 01:17:33;;;;;;;;;;;17.90;1.00;;;;;;5036119;28;19933;-52
2022/10/20 01:20:13;;;;;;;;;;;17.90;1.00;;;;;;5036272;28;19921;-51
2022/10/20 01:22:48;;;;;;;;;;;17.90;1.00;;;;;;5035730;28;19920;-53
2022/10/20 01:25:35;;;;;;;;;;;17.90;1.00;;;;;;5036085;28;19925;-52
2022/10/20 01:28:02;;;;;;;;;;;17.90;1.00;;;;;;5032142;28;19921;-49
2022/10/20 01:30:31;;;;;;;;;;;17.90;1.00;;;;;;5036057;28;19921;-56
2022/10/20 01:33:12;;;;;;;;;;;17.90;1.00;;;;;;5035575;28;19925;-55
2022/10/20 01:35:41;;;;;;;;;;;17.90;1.00;;;;;;5035741;28;19921;-54
2022/10/20 01:38:27;;;;;;;;;;;17.90;1.00;;;;;;5035706;28;19928;-58
2022/10/20 01:41:01;;;;;;;;;;;17.90;1.00;;;;;;5035788;28;20019;-53
2022/10/20 01:43:31;;;;;;;;;;;17.90;1.00;;;;;;5035645;28;19931;-53
2022/10/20 01:45:58;;;;;;;;;;;17.80;1.00;;;;;;5035843;28;19925;-49
2022/10/20 01:48:27;;;;;;;;;;;17.90;1.00;;;;;;5035578;28;19952;-55
2022/10/20 01:50:54;;;;;;;;;;;17.90;1.00;;;;;;5035422;28;19921;-53
2022/10/20 01:53:21;;;;;;;;;;;17.80;1.00;;;;;;5035248;28;20025;-58
2022/10/20 01:55:49;;;;;;;;;;;17.80;1.00;;;;;;5035309;28;19934;-52
2022/10/20 01:58:29;;;;;;;;;;;17.80;1.00;;;;;;5034806;28;19956;-54
2022/10/20 02:00:58;;;;;;;;;;;17.80;1.00;;;;;;5035269;28;19921;-56
2022/10/20 02:03:50;;;;;;;;;;;17.80;1.00;;;;;;5034759;28;20012;-55
2022/10/20 02:06:33;;;;;;;;;;;17.80;1.00;;;;;;5035094;28;19921;-54
2022/10/20 02:09:04;;;;;;;;;;;17.80;1.00;;;;;;5035576;28;19921;-51
2022/10/20 02:11:40;;;;;;;;;;;17.80;1.00;;;;;;5034202;28;20367;-49
2022/10/20 02:14:08;;;;;;;;;;;17.80;1.00;;;;;;5035156;28;19928;-55
2022/10/20 02:16:38;;;;;;;;;;;17.80;1.00;;;;;;5035198;28;19921;-56
2022/10/20 02:19:06;;;;;;;;;;;17.80;1.00;;;;;;5035328;28;19925;-54
2022/10/20 02:21:33;;;;;;;;;;;17.80;1.00;;;;;;5034823;28;19992;-51
2022/10/20 02:24:02;;;;;;;;;;;17.80;1.00;;;;;;5034734;28;19921;-51
2022/10/20 02:26:31;;;;;;;;;;;17.80;1.00;;;;;;5034887;28;19970;-52
2022/10/20 02:28:59;;;;;;;;;;;17.80;1.00;;;;;;5034800;28;19925;-55
2022/10/20 02:31:26;;;;;;;;;;;17.80;1.00;;;;;;5034741;28;20386;-53
2022/10/20 02:33:54;;;;;;;;;;;17.80;1.00;;;;;;5034671;28;19921;-55
2022/10/20 02:36:24;;;;;;;;;;;17.80;1.00;;;;;;5034692;28;19929;-54
2022/10/20 02:38:51;;;;;;;;;;;17.80;1.00;;;;;;5034591;28;19921;-53
2022/10/20 02:41:18;;;;;;;;;;;17.70;1.00;;;;;;5034906;28;20044;-50
2022/10/20 02:43:45;;;;;;;;;;;17.70;1.00;;;;;;5034591;28;19952;-53
2022/10/20 02:46:11;;;;;;;;;;;17.70;1.00;;;;;;5034517;28;19921;-52
2022/10/20 02:48:38;;;;;;;;;;;17.80;1.00;;;;;;5034555;28;19964;-55
2022/10/20 02:51:05;;;;;;;;;;;17.70;1.00;;;;;;5034493;28;19920;-57
2022/10/20 02:53:32;;;;;;;;;;;17.70;1.00;;;;;;5034021;28;19928;-55
2022/10/20 02:55:59;;;;;;;;;;;17.70;1.00;;;;;;5034394;28;19921;-53
2022/10/20 02:58:25;;;;;;;;;;;17.70;1.00;;;;;;5034417;28;19935;-52
2022/10/20 03:00:52;;;;;;;;;;;17.70;1.00;;;;;;5034382;28;19975;-54
2022/10/20 03:03:19;;;;;;;;;;;17.70;1.00;;;;;;5033829;28;19975;-52
2022/10/20 03:05:46;;;;;;;;;;;17.70;1.00;;;;;;5034396;28;19921;-57
2022/10/20 03:08:13;;;;;;;;;;;17.60;1.00;;;;;;5034162;28;19928;-53
2022/10/20 03:10:41;;;;;;;;;;;17.70;1.00;;;;;;5034157;28;20339;-51
2022/10/20 03:13:09;;;;;;;;;;;17.60;1.00;;;;;;5033881;28;20390;-53
2022/10/20 03:15:37;;;;;;;;;;;17.60;1.00;;;;;;5033927;28;19979;-57
2022/10/20 03:18:04;;;;;;;;;;;17.60;1.00;;;;;;5034004;28;19928;-54
2022/10/20 03:20:31;;;;;;;;;;;17.60;1.00;;;;;;5034103;28;19967;-56
2022/10/20 03:22:58;;;;;;;;;;;17.60;1.00;;;;;;5033196;28;19924;-57
2022/10/20 03:25:24;;;;;;;;;;;17.60;1.00;;;;;;5033615;28;19983;-51
2022/10/20 03:27:51;;;;;;;;;;;17.60;1.00;;;;;;5033635;28;19928;-54
2022/10/20 03:30:18;;;;;;;;;;;17.60;1.00;;;;;;5033716;28;19929;-52
2022/10/20 03:32:45;;;;;;;;;;;17.60;1.00;;;;;;5033566;28;19920;-48
2022/10/20 03:35:11;;;;;;;;;;;17.50;1.00;;;;;;5033462;28;19956;-53
2022/10/20 03:37:38;;;;;;;;;;;17.50;1.00;;;;;;5033537;28;20385;-52
2022/10/20 03:40:05;;;;;;;;;;;17.60;1.00;;;;;;5033553;28;19925;-52
2022/10/20 03:42:32;;;;;;;;;;;17.60;1.00;;;;;;5033218;28;19940;-54
2022/10/20 03:44:59;;;;;;;;;;;17.50;1.00;;;;;;5033107;28;19933;-46
2022/10/20 03:47:26;;;;;;;;;;;17.50;1.00;;;;;;5033341;28;19921;-52
2022/10/20 03:49:52;;;;;;;;;;;17.50;1.00;;;;;;5033602;28;19956;-47
2022/10/20 03:52:19;;;;;;;;;;;17.50;1.00;;;;;;5033011;28;19921;-52
2022/10/20 03:54:46;;;;;;;;;;;17.50;1.00;;;;;;5033547;28;19947;-54
2022/10/20 03:57:13;;;;;;;;;;;17.50;1.00;;;;;;5033373;28;19956;-52
2022/10/20 03:59:39;;;;;;;;;;;17.50;1.00;;;;;;5033253;28;20020;-53
2022/10/20 04:02:06;;;;;;;;;;;17.50;1.00;;;;;;5032977;28;19928;-49
2022/10/20 04:04:33;;;;;;;;;;;17.50;1.00;;;;;;5033288;28;20275;-51
2022/10/20 04:07:00;;;;;;;;;;;17.50;1.00;;;;;;5026741;28;20306;-55
2022/10/20 04:09:26;;;;;;;;;;;17.60;1.00;;;;;;5026938;28;19921;-49
2022/10/20 04:11:53;;;;;;;;;;;17.70;1.00;;;;;;5052796;28;19924;-54
2022/10/20 04:14:20;;;;;;;;;;;17.70;1.00;;;;;;5052809;28;20373;-51
2022/10/20 04:16:46;;;;;;;;;;;17.60;1.00;;;;;;5052967;28;19971;-47
2022/10/20 04:19:13;;;;;;;;;;;17.50;1.00;;;;;;5052926;28;20089;-53
2022/10/20 04:21:40;;;;;;;;;;;17.50;1.00;;;;;;5052698;28;20301;-50
2022/10/20 04:24:07;;;;;;;;;;;17.50;1.00;;;;;;5052808;28;19920;-57
2022/10/20 04:26:33;;;;;;;;;;;17.40;1.00;;;;;;5052699;28;19927;-55
2022/10/20 04:29:01;;;;;;;;;;;17.50;1.00;;;;;;5053147;28;19920;-50
2022/10/20 04:31:28;;;;;;;;;;;17.50;1.00;;;;;;5052865;28;20301;-55
2022/10/20 04:33:54;;;;;;;;;;;17.50;1.00;;;;;;5052707;28;19921;-48
2022/10/20 04:36:21;;;;;;;;;;;17.40;1.00;;;;;;5056446;28;19920;-56
2022/10/20 04:38:48;;;;;;;;;;;17.50;1.00;;;;;;5056855;28;19967;-55
2022/10/20 04:41:14;;;;;;;;;;;17.50;1.00;;;;;;5056825;28;20007;-55
2022/10/20 04:43:41;;;;;;;;;;;17.40;1.00;;;;;;5056559;28;19975;-52
2022/10/20 04:46:09;;;;;;;;;;;17.50;1.00;;;;;;5042964;28;19921;-54
2022/10/20 04:48:36;;;;;;;;;;;17.50;1.00;;;;;;5036207;28;19924;-49
2022/10/20 04:51:04;;;;;;;;;;;17.40;1.00;;;;;;5035359;28;20307;-53
2022/10/20 04:53:31;;;;;;;;;;;17.40;1.00;;;;;;5036069;28;19921;-59
2022/10/20 04:55:57;;;;;;;;;;;17.40;1.00;;;;;;5036499;28;19975;-53
2022/10/20 04:58:25;;;;;;;;;;;17.50;1.00;;;;;;5036484;28;19928;-55
2022/10/20 05:00:52;;;;;;;;;;;17.40;1.00;;;;;;5036568;28;19968;-55
2022/10/20 05:03:19;;;;;;;;;;;17.50;1.00;;;;;;5036567;28;19971;-53
2022/10/20 05:05:46;;;;;;;;;;;17.50;1.00;;;;;;5036130;28;20413;-50
2022/10/20 05:08:13;;;;;;;;;;;17.50;1.00;;;;;;5036533;28;19921;-56
2022/10/20 05:10:40;;;;;;;;;;;17.40;1.00;;;;;;5036483;28;19921;-57
2022/10/20 05:13:06;;;;;;;;;;;17.40;1.00;;;;;;5035826;28;19928;-58
2022/10/20 05:15:33;;;;;;;;;;;17.40;1.00;;;;;;5036256;28;19932;-56
2022/10/20 05:18:00;;;;;;;;;;;17.40;1.00;;;;;;5036380;28;19997;-57
2022/10/20 05:20:26;;;;;;;;;;;17.40;1.00;;;;;;5036082;28;19921;-53
2022/10/20 05:22:56;;;;;;;;;;;17.40;1.00;;;;;;5035776;28;19928;-55
2022/10/20 05:25:23;;;;;;;;;;;17.30;1.00;;;;;;5036154;28;19996;-53
2022/10/20 05:28:02;;;;;;;;;;;17.30;1.00;;;;;;5036085;28;20347;-56
2022/10/20 05:30:29;;;;;;;;;;;17.30;1.00;;;;;;5035772;28;20231;-57
2022/10/20 05:32:56;;;;;;;;;;;17.30;1.00;;;;;;5035523;28;19928;-56
2022/10/20 05:35:23;;;;;;;;;;;17.30;1.00;;;;;;5036011;28;20298;-55
2022/10/20 05:37:49;;;;;;;;;;;17.30;1.00;;;;;;5035584;28;20378;-55
2022/10/20 05:40:16;;;;;;;;;;;17.40;1.00;;;;;;5035743;28;19984;-56
2022/10/20 05:42:43;;;;;;;;;;;17.40;1.00;;;;;;5035561;28;19925;-54
2022/10/20 05:45:09;;;;;;;;;;;17.30;1.00;;;;;;5035617;28;19936;-53
2022/10/20 05:47:36;;;;;;;;;;;17.30;1.00;;;;;;5035532;28;19952;-51
2022/10/20 05:50:03;;;;;;;;;;;17.30;1.00;;;;;;5035516;28;19962;-55
2022/10/20 05:52:30;;;;;;;;;;;17.30;1.00;;;;;;5035032;28;19925;-58
2022/10/20 05:54:58;;;;;;;;;;;17.30;1.00;;;;;;5035621;28;20334;-54
2022/10/20 05:57:25;;;;;;;;;;;17.30;1.00;;;;;;5035432;28;19925;-54
2022/10/20 05:59:51;;;;;;;;;;;17.30;1.00;;;;;;5035407;28;19921;-54
2022/10/20 06:02:18;;;;;;;;;;;17.30;1.00;;;;;;5034958;28;19932;-58
2022/10/20 06:04:45;;;;;;;;;;;17.20;1.00;;;;;;5035314;28;19925;-54
2022/10/20 06:07:11;;;;;;;;;;;17.20;1.00;;;;;;5035224;28;19927;-54
2022/10/20 06:09:38;;;;;;;;;;;17.20;1.00;;;;;;5035316;28;19983;-50
2022/10/20 06:12:06;;;;;;;;;;;17.20;1.00;;;;;;5034901;28;20375;-55
2022/10/20 06:14:37;;;;;;;;;;;17.20;1.00;;;;;;5034876;28;19939;-52
2022/10/20 06:17:04;;;;;;;;;;;17.20;1.00;;;;;;5034995;28;19936;-46
2022/10/20 06:19:31;;;;;;;;;;;17.20;1.00;;;;;;5035179;28;20297;-51
2022/10/20 06:21:58;;;;;;;;;;;17.20;1.00;;;;;;5034780;28;19921;-51
2022/10/20 06:24:33;;;;;;;;;;;17.20;1.00;;;;;;5035012;28;19938;-54
2022/10/20 06:27:00;;;;;;;;;;;17.20;1.00;;;;;;5028706;28;20370;-52
2022/10/20 06:29:27;;;;;;;;;;;17.20;1.00;;;;;;5031812;28;19960;-50
2022/10/20 06:31:53;;;;;;;;;;;17.20;1.00;;;;;;5034421;28;20365;-49
2022/10/20 06:34:21;;;;;;;;;;;17.20;1.00;;;;;;5034521;28;19921;-53
2022/10/20 06:36:48;;;;;;;;;;;17.20;1.00;;;;;;5034696;28;19929;-53
2022/10/20 06:39:17;;;;;;;;;;;17.20;1.00;;;;;;5033348;28;20263;-52
2022/10/20 06:41:49;;;;;;;;;;;17.10;1.00;;;;;;5034128;28;20375;-53
2022/10/20 06:44:18;;;;;;;;;;;17.20;1.00;;;;;;5034474;28;19952;-56
2022/10/20 06:46:45;;;;;;;;;;;17.10;1.00;;;;;;5034449;28;19975;-52
2022/10/20 06:49:12;;;;;;;;;;;17.10;1.00;;;;;;5034410;28;19927;-55
2022/10/20 06:51:39;;;;;;;;;;;17.10;1.00;;;;;;5033910;28;19979;-54
2022/10/20 06:54:06;;;;;;;;;;;17.10;1.00;;;;;;5034192;28;19942;-57
2022/10/20 06:56:34;;;;;;;;;;;17.10;1.00;;;;;;5034310;28;19975;-55
2022/10/20 06:59:01;;;;;;;;;;;17.10;1.00;;;;;;5032261;28;20306;-55
2022/10/20 07:01:28;;;;;;;;;;;17.10;1.00;;;;;;5034017;28;19921;-52
2022/10/20 07:03:57;;;;;;;;;;;17.10;1.00;;;;;;5033776;28;19975;-53
2022/10/20 07:06:42;;;;;;;;;;;17.10;1.00;;;;;;5034103;28;19928;-51
2022/10/20 07:09:12;;;;;;;;;;;17.00;1.00;;;;;;5034004;28;19929;-51
2022/10/20 07:11:39;;;;;;;;;;;17.00;1.00;;;;;;5033750;28;19921;-51
2022/10/20 07:14:06;;;;;;;;;;;17.00;1.00;;;;;;5033869;28;20004;-52
2022/10/20 07:16:33;;;;;;;;;;;17.00;1.00;;;;;;5033646;28;19921;-51
2022/10/20 07:19:01;;;;;;;;;;;17.00;1.00;;;;;;5033622;28;19928;-55
2022/10/20 07:21:30;;;;;;;;;;;17.00;1.00;;;;;;5034017;28;19968;-51
2022/10/20 07:24:03;;;;;;;;;;;17.00;1.00;;;;;;5033721;28;19921;-52
2022/10/20 07:26:31;;;;;;;;;;;17.00;1.00;;;;;;5033459;28;20379;-56
2022/10/20 07:28:59;;;;;;;;;;;17.00;1.00;;;;;;5033663;28;19974;-56
2022/10/20 07:31:25;;;;;;;;;;;17.00;1.00;;;;;;5033574;28;19924;-51
2022/10/20 07:33:52;;;;;;;;;;;17.00;1.00;;;;;;5033197;28;19925;-53
2022/10/20 07:36:39;;;;;;;;;;;17.00;1.00;;;;;;5033469;28;19959;-56
2022/10/20 07:39:06;;;;;;;;;;;17.00;1.00;;;;;;5033607;28;19967;-52
2022/10/20 07:41:35;;;;;;;;;;;17.00;1.00;;;;;;5033157;28;19921;-56
2022/10/20 07:44:02;;;;;;;;;;;17.00;1.00;;;;;;5033405;28;20333;-52
2022/10/20 07:46:29;;;;;;;;;;;17.00;1.00;;;;;;5033159;28;19929;-57
2022/10/20 07:48:55;;;;;;;;;;;17.00;1.00;;;;;;5033277;28;19921;-53
2022/10/20 07:51:37;;;;;;;;;;;17.00;1.00;;;;;;5032953;28;19921;-55
2022/10/20 07:54:06;;;;;;;;;;;17.00;1.00;;;;;;5033151;28;19921;-58
2022/10/20 07:56:34;;;;;;;;;;;17.00;1.00;;;;;;5033334;28;19943;-56
2022/10/20 07:59:01;;;;;;;;;;;17.00;1.00;;;;;;5033048;28;20032;-49
2022/10/20 08:01:27;;;;;;;;;;;17.00;1.00;;;;;;5033074;28;19921;-51
2022/10/20 08:03:54;;;;;;;;;;;16.90;1.00;;;;;;5032730;28;19975;-55
2022/10/20 08:06:21;;;;;;;;;;;16.90;1.00;;;;;;5032936;28;19932;-55
2022/10/20 08:08:48;;;;;;;;;;;16.90;1.00;;;;;;5032648;28;20432;-52
2022/10/20 08:11:15;;;;;;;;;;;16.90;1.00;;;;;;5032340;28;19921;-54
2022/10/20 08:13:42;;;;;;;;;;;17.00;1.00;;;;;;5032771;28;19924;-52
2022/10/20 08:16:09;;;;;;;;;;;17.00;1.00;;;;;;5033021;28;19929;-52
2022/10/20 08:18:44;;;;;;;;;;;17.00;1.00;;;;;;5033009;28;19975;-52
2022/10/20 08:21:23;;;;;;;;;;;17.00;1.00;;;;;;5032819;28;19928;-50
2022/10/20 08:23:50;;;;;;;;;;;16.90;1.00;;;;;;5032473;28;19921;-56
2022/10/20 08:26:21;;;;;;;;;;;16.90;1.00;;;;;;5032964;28;19991;-57
2022/10/20 08:28:49;;;;;;;;;;;16.90;1.00;;;;;;5032998;28;20309;-49
2022/10/20 08:31:16;;;;;;;;;;;16.90;1.00;;;;;;5032931;28;19961;-53
2022/10/20 08:33:43;;;;;;;;;;;16.90;1.00;;;;;;5032584;28;19928;-53
2022/10/20 08:36:13;;;;;;;;;;;16.90;1.00;;;;;;5032655;28;20019;-56
2022/10/20 08:38:41;;;;;;;;;;;16.90;1.00;;;;;;5032624;28;19974;-52
2022/10/20 08:41:27;;;;;;;;;;;16.90;1.00;;;;;;5032848;28;20008;-55
2022/10/20 08:44:01;;;;;;;;;;;16.90;1.00;;;;;;5032570;28;19928;-54
2022/10/20 08:46:38;;;;;;;;;;;16.90;1.00;;;;;;5032813;28;20362;-55
2022/10/20 08:49:09;;;;;;;;;;;16.90;1.00;;;;;;5032619;28;19971;-51
2022/10/20 08:51:37;;;;;;;;;;;16.90;1.00;;;;;;5032780;28;20024;-57
2022/10/20 08:54:05;;;;;;;;;;;16.90;1.00;;;;;;5032713;28;19921;-52
2022/10/20 08:56:32;;;;;;;;;;;16.90;1.00;;;;;;5032726;28;19921;-51
2022/10/20 08:59:00;;;;;;;;;;;16.90;1.00;;;;;;5032494;28;19967;-50
2022/10/20 09:01:32;;;;;;;;;;;16.90;1.00;;;;;;5032600;28;20016;-54
2022/10/20 09:04:03;;;;;;;;;;;16.90;1.00;;;;;;5032480;28;20342;-52
2022/10/20 09:06:30;;;;;;;;;;;16.80;1.00;;;;;;5032527;28;19992;-56
2022/10/20 09:08:59;;;;;;;;;;;16.80;1.00;;;;;;5032555;28;19995;-52
2022/10/20 09:11:33;;;;;;;;;;;16.80;1.00;;;;;;5032853;28;19943;-51
2022/10/20 09:14:00;;;;;;;;;;;16.80;1.00;;;;;;5032332;28;19936;-56
2022/10/20 09:16:28;;;;;;;;;;;16.80;1.00;;;;;;5032407;28;19925;-52
2022/10/20 09:19:21;;;;;;;;;;;16.90;1.00;;;;;;5032553;28;19927;-50
2022/10/20 09:21:52;;;;;;;;;;;16.90;1.00;;;;;;5034672;28;19928;-56
2022/10/20 09:24:20;;;;;;;;;;;16.80;1.00;;;;;;5036050;28;19971;-53
2022/10/20 09:26:48;;;;;;;;;;;16.90;1.00;;;;;;5036121;28;19975;-55
2022/10/20 09:29:34;;;;;;;;;;;16.90;1.00;;;;;;5036025;28;19925;-60
2022/10/20 09:32:00;;;;;;;;;;;16.90;1.00;;;;;;5035909;28;20393;-52
2022/10/20 09:34:47;;;;;;;;;;;16.90;1.00;;;;;;5035683;28;19927;-54
2022/10/20 09:37:17;;;;;;;;;;;16.90;1.00;;;;;;5036008;28;20310;-57
2022/10/20 09:39:47;;;;;;;;;;;16.90;1.00;;;;;;5035953;28;20386;-55
2022/10/20 09:42:32;;;;;;;;;;;16.90;1.00;;;;;;5035604;28;19924;-53
2022/10/20 09:45:03;;;;;;;;;;;16.90;1.00;;;;;;5035479;28;19925;-56
2022/10/20 09:47:32;;;;;;;;;;;16.90;1.00;;;;;;5035724;28;19921;-53
2022/10/20 09:50:00;;;;;;;;;;;16.90;1.00;;;;;;5035679;28;19975;-55
2022/10/20 09:52:33;;;;;;;;;;;16.90;1.00;;;;;;5035256;28;19929;-53
2022/10/20 09:55:03;;;;;;;;;;;16.90;1.00;;;;;;5035600;28;20294;-55
2022/10/20 09:57:30;;;;;;;;;;;16.90;1.00;;;;;;5035603;28;20340;-54
2022/10/20 09:59:57;;;;;;;;;;;16.90;1.00;;;;;;5035475;28;20375;-57
2022/10/20 10:02:38;;;;;;;;;;;16.90;1.00;;;;;;5035089;28;20345;-57
2022/10/20 10:05:13;;;;;;;;;;;16.90;1.00;;;;;;5035096;28;19921;-59
2022/10/20 10:07:39;;;;;;;;;;;16.90;1.00;;;;;;5035224;28;20297;-55
2022/10/20 10:10:06;;;;;;;;;;;16.90;1.00;;;;;;5035336;28;20344;-55
2022/10/20 10:12:34;;;;;;;;;;;16.90;1.00;;;;;;5034806;28;19975;-56
2022/10/20 10:15:06;;;;;;;;;;;16.90;1.00;;;;;;5034904;28;20286;-57
2022/10/20 10:17:42;;;;;;;;;;;16.80;1.00;;;;;;5035096;28;19921;-54
2022/10/20 10:20:09;;;;;;;;;;;16.80;1.00;;;;;;5035199;28;19925;-58
2022/10/20 10:22:36;;;;;;;;;;;16.80;1.00;;;;;;5034885;28;19928;-54
2022/10/20 10:25:05;;;;;;;;;;;16.80;1.00;;;;;;5034855;28;20007;-50
2022/10/20 10:27:33;;;;;;;;;;;16.80;1.00;;;;;;5034917;28;19983;-55
2022/10/20 10:30:16;;;;;;;;;;;16.80;1.00;;;;;;5034741;28;19925;-55
2022/10/20 10:32:44;;;;;;;;;;;16.80;1.00;;;;;;5033864;28;20378;-56
2022/10/20 10:35:21;;;;;;;;;;;16.80;1.00;;;;;;5034767;28;20290;-51
2022/10/20 10:37:48;;;;;;;;;;;16.80;1.00;;;;;;5034819;28;20291;-55
2022/10/20 10:40:25;;;;;;;;;;;16.80;1.00;;;;;;5034617;28;19921;-51
2022/10/20 10:42:59;;;;;;;;;;;16.80;1.00;;;;;;5034265;28;20290;-51
2022/10/20 10:45:49;;;;;;;;;;;16.80;1.00;;;;;;5034553;28;20299;-52
2022/10/20 10:48:19;;;;;;;;;;;16.80;1.00;;;;;;5034418;28;19927;-57
2022/10/20 10:50:46;;;;;;;;;;;16.80;1.00;;;;;;5034996;28;19921;-50
2022/10/20 10:53:19;;;;;;;;;;;16.80;1.00;;;;;;5034240;28;20371;-52
2022/10/20 10:56:05;;;;;;;;;;;16.80;1.00;;;;;;5034542;28;19921;-51
2022/10/20 10:58:38;;;;;;;;;;;16.80;1.00;;;;;;5034356;28;19928;-55
2022/10/20 11:01:04;;;;;;;;;;;16.80;1.00;;;;;;5034194;28;19921;-57
2022/10/20 11:03:51;;;;;;;;;;;16.80;1.00;;;;;;5033932;28;19959;-55
2022/10/20 11:06:23;;;;;;;;;;;16.80;1.00;;;;;;5033887;28;20414;-55
2022/10/20 11:08:53;;;;;;;;;;;16.80;1.00;;;;;;5034376;28;19927;-56
2022/10/20 11:11:32;;;;;;;;;;;16.80;1.00;;;;;;5034213;28;20387;-55
2022/10/20 11:14:04;;;;;;;;;;;16.80;1.00;;;;;;5034090;28;20347;-57
2022/10/20 11:16:34;;;;;;;;;;;16.80;1.00;;;;;;5034213;28;19925;-55
2022/10/20 11:19:27;;;;;;;;;;;16.80;1.00;;;;;;5033831;28;20279;-56
2022/10/20 11:21:54;;;;;;;;;;;16.80;1.00;;;;;;5032405;28;19921;-55
2022/10/20 11:24:23;;;;;;;;;;;16.80;1.00;;;;;;5033861;28;19927;-53
2022/10/20 11:26:53;;;;;;;;;;;16.80;1.00;;;;;;5033676;28;20294;-56
2022/10/20 11:29:26;;;;;;;;;;;16.80;1.00;;;;;;5033718;28;19932;-56
2022/10/20 11:31:53;;;;;;;;;;;16.80;1.00;;;;;;5033428;28;19932;-53
2022/10/20 11:34:25;;;;;;;;;;;16.80;1.00;;;;;;5033352;28;19932;-50
2022/10/20 11:36:55;;;;;;;;;;;16.80;1.00;;;;;;5033464;28;19971;-57
2022/10/20 11:39:24;;;;;;;;;;;16.80;1.00;;;;;;5033421;28;20436;-56
2022/10/20 11:41:57;;;;;;;;;;;16.80;1.00;;;;;;5032825;28;20398;-53
2022/10/20 11:44:27;;;;;;;;;;;16.80;1.00;;;;;;5033213;28;19967;-51
2022/10/20 11:46:59;;;;;;;;;;;16.80;1.00;;;;;;5033387;28;19928;-54
2022/10/20 11:49:26;;;;;;;;;;;16.80;1.00;;;;;;5033421;28;19948;-56
2022/10/20 11:52:11;;;;;;;;;;;16.80;1.00;;;;;;5032979;28;19929;-57
2022/10/20 11:54:58;;;;;;;;;;;16.80;1.00;;;;;;5033234;28;19932;-54
2022/10/20 11:57:44;;;;;;;;;;;16.80;1.00;;;;;;5022207;28;19964;-55
2022/10/20 12:00:16;;;;;;;;;;;16.80;1.00;;;;;;5031778;28;20311;-56
2022/10/20 12:02:55;;;;;;;;;;;16.90;1.00;;;;;;5033112;28;19921;-54
2022/10/20 12:05:21;;;;;;;;;;;16.90;1.00;;;;;;5033030;28;19921;-56
2022/10/20 12:07:58;;;;;;;;;;;16.90;1.00;;;;;;5033013;28;19921;-57
2022/10/20 12:10:51;;;;;;;;;;;16.80;1.00;;;;;;5033122;28;19991;-56
2022/10/20 12:13:18;;;;;;;;;;;16.80;1.00;;;;;;5032931;28;19925;-54
2022/10/20 12:15:49;;;;;;;;;;;16.80;1.00;;;;;;5033048;28;19960;-55
2022/10/20 12:18:27;;;;;;;;;;;16.80;1.00;;;;;;5033327;28;19921;-51
2022/10/20 12:20:55;;;;;;;;;;;16.80;1.00;;;;;;5033009;28;19921;-58
2022/10/20 12:23:40;;;;;;;;;;;16.80;1.00;;;;;;5032607;28;19921;-54
2022/10/20 12:26:25;;;;;;;;;;;16.80;1.00;;;;;;5033062;28;19921;-51
2022/10/20 12:28:52;;;;;;;;;;;16.80;1.00;;;;;;5032911;28;19921;-58
2022/10/20 12:31:19;;;;;;;;;;;16.80;1.00;;;;;;5032832;28;19983;-58
2022/10/20 12:33:49;;;;;;;;;;;16.80;1.00;;;;;;5032486;28;20390;-52
2022/10/20 12:36:15;;;;;;;;;;;16.80;1.00;;;;;;5032848;28;19944;-53
2022/10/20 12:39:02;;;;;;;;;;;16.80;1.00;;;;;;5032700;28;19921;-58
2022/10/20 12:41:32;;;;;;;;;;;16.80;1.00;;;;;;5028974;28;19920;-55
2022/10/20 12:44:06;;;;;;;;;;;16.80;1.00;;;;;;5032699;28;20303;-56
2022/10/20 12:46:34;;;;;;;;;;;16.80;1.00;;;;;;5032643;28;19925;-49
2022/10/20 12:49:05;;;;;;;;;;;16.80;1.00;;;;;;5031483;28;20302;-50
2022/10/20 12:51:40;;;;;;;;;;;16.80;1.00;;;;;;5032444;28;19921;-55
2022/10/20 12:54:21;;;;;;;;;;;16.80;1.00;;;;;;5032651;28;19967;-50
2022/10/20 12:56:49;;;;;;;;;;;16.80;1.00;;;;;;5035186;28;19921;-57
2022/10/20 12:59:19;;;;;;;;;;;16.80;1.00;;;;;;5036774;28;19928;-55
2022/10/20 13:02:04;;;;;;;;;;;16.80;1.00;;;;;;5036167;28;19928;-53
2022/10/20 13:04:50;;;;;;;;;;;16.80;1.00;;;;;;5036337;28;19928;-50
2022/10/20 13:07:36;;;;;;;;;;;16.80;1.00;;;;;;5036356;28;20387;-53
2022/10/20 13:10:23;;;;;;;;;;;16.80;1.00;;;;;;5036316;28;19927;-53
2022/10/20 13:12:50;;;;;;;;;;;16.80;1.00;;;;;;5035983;28;20007;-48
2022/10/20 13:15:18;;;;;;;;;;;16.80;1.00;;;;;;5036107;28;19932;-55
2022/10/20 13:17:54;;;;;;;;;;;16.80;1.00;;;;;;5036196;28;19921;-49
2022/10/20 13:20:29;;;;;;;;;;;16.80;1.00;;;;;;5036102;28;19920;-51
2022/10/20 13:22:56;;;;;;;;;;;16.80;1.00;;;;;;5035925;28;19921;-50
2022/10/20 13:25:31;;;;;;;;;;;16.80;1.00;;;;;;5036149;28;19956;-58
2022/10/20 13:28:02;;;;;;;;;;;16.90;1.00;;;;;;5035740;28;20393;-52
2022/10/20 13:30:30;;;;;;;;;;;16.80;1.00;;;;;;5036012;28;19927;-48
2022/10/20 13:33:12;;;;;;;;;;;16.80;1.00;;;;;;5035706;28;19921;-57
2022/10/20 13:36:11;;;;;;;;;;;16.90;1.00;;;;;;5036244;28;19944;-51
2022/10/20 13:38:37;;;;;;;;;;;16.90;1.00;;;;;;5034633;28;19932;-52
2022/10/20 13:41:23;;;;;;;;;;;16.90;1.00;;;;;;5035766;28;19921;-56
2022/10/20 13:43:50;;;;;;;;;;;16.80;1.00;;;;;;5035619;28;20306;-53
2022/10/20 13:46:41;;;;;;;;;;;16.80;1.00;;;;;;5035890;28;20293;-56
2022/10/20 13:49:14;;;;;;;;;;;16.80;1.00;;;;;;5035691;28;19975;-53
2022/10/20 13:51:50;;;;;;;;;;;16.80;1.00;;;;;;5035391;28;19925;-55
2022/10/20 13:54:25;;;;;;;;;;;16.80;1.00;;;;;;5035564;28;19921;-52
2022/10/20 13:56:52;;;;;;;;;;;16.90;1.00;;;;;;5035436;28;19925;-52
2022/10/20 13:59:21;;;;;;;;;;;16.90;1.00;;;;;;5035408;28;20020;-47
2022/10/20 14:01:51;;;;;;;;;;;16.90;1.00;;;;;;5035519;28;19956;-55
2022/10/20 14:04:22;;;;;;;;;;;16.90;1.00;;;;;;5035281;28;19968;-54
2022/10/20 14:06:49;;;;;;;;;;;16.90;1.00;;;;;;5034554;28;20051;-53
2022/10/20 14:09:17;;;;;;;;;;;17.00;1.00;;;;;;5034865;28;19928;-55
2022/10/20 14:11:45;;;;;;;;;;;17.00;1.00;;;;;;5034964;28;19921;-56
2022/10/20 14:14:12;;;;;;;;;;;17.00;1.00;;;;;;5035373;28;19921;-56
2022/10/20 14:16:43;;;;;;;;;;;17.00;1.00;;;;;;5035081;28;20389;-58
2022/10/20 14:19:11;;;;;;;;;;;17.00;1.00;;;;;;5035318;28;20287;-56
2022/10/20 14:21:49;;;;;;;;;;;16.90;1.00;;;;;;5034982;28;19921;-56
2022/10/20 14:24:36;;;;;;;;;;;16.90;1.00;;;;;;5034999;28;19925;-58
2022/10/20 14:27:03;;;;;;;;;;;16.90;1.00;;;;;;5035258;28;20012;-52
2022/10/20 14:29:32;;;;;;;;;;;16.90;1.00;;;;;;5034044;28;19921;-53
2022/10/20 14:31:59;;;;;;;;;;;16.90;1.00;;;;;;5034626;28;20031;-50
2022/10/20 14:34:33;;;;;;;;;;;16.90;1.00;;;;;;5034772;28;19921;-53
2022/10/20 14:37:01;;;;;;;;;;;16.90;1.00;;;;;;5021166;28;19976;-50
2022/10/20 14:39:36;;;;;;;;;;;16.90;1.00;;;;;;5015055;28;19928;-54
2022/10/20 14:42:21;;;;;;;;;;;16.90;1.00;;;;;;5014656;28;19922;-52
2022/10/20 14:44:49;;;;;;;;;;;16.90;1.00;;;;;;5014731;28;19921;-52
2022/10/20 14:47:17;;;;;;;;;;;16.90;1.00;;;;;;5022450;28;19971;-51
2022/10/20 14:49:47;;;;;;;;;;;16.90;1.00;;;;;;5031412;28;19988;-54